sensor_id;sensor_type;location;lat;lon;timestamp;temperature;humidity
10083;DHT22;5080;48.528;8.078;2022-09-09T00:00:19;18.80;99.90
10083;DHT22;5080;48.528;8.078;2022-09-09T00:02:53;18.80;99.90
10083;DHT22;5080;48.528;8.078;2022-09-09T00:05:28;18.80;99.90
10083;DHT22;5080;48.528;8.078;2022-09-09T00:07:58;18.70;99.90
10083;DHT22;5080;48.528;8.078;2022-09-09T00:10:32;18.70;99.90
10083;DHT22;5080;48.528;8.078;2022-09-09T00:13:05;18.60;99.90
10083;DHT22;5080;48.528;8.078;2022-09-09T00:15:39;18.60;99.90
10083;DHT22;5080;48.528;8.078;2022-09-09T00:18:15;18.60;99.90
10083;DHT22;5080;48.528;8.078;2022-09-09T00:20:48;18.60;99.90
10083;DHT22;5080;48.528;8.078;2022-09-09T00:23:22;18.50;99.90
10083;DHT22;5080;48.528;8.078;2022-09-09T00:25:57;18.50;99.90
10083;DHT22;5080;48.528;8.078;2022-09-09T00:28:27;18.50;99.90
10083;DHT22;5080;48.528;8.078;2022-09-09T00:30:59;18.60;99.90
10083;DHT22;5080;48.528;8.078;2022-09-09T00:33:30;18.60;99.90
10083;DHT22;5080;48.528;8.078;2022-09-09T00:35:58;18.60;99.90
10083;DHT22;5080;48.528;8.078;2022-09-09T00:38:31;18.60;99.90
10083;DHT22;5080;48.528;8.078;2022-09-09T00:41:03;18.60;99.90
10083;DHT22;5080;48.528;8.078;2022-09-09T00:43:36;18.70;99.90
10083;DHT22;5080;48.528;8.078;2022-09-09T00:46:18;18.70;99.90
10083;DHT22;5080;48.528;8.078;2022-09-09T00:48:54;18.80;99.90
10083;DHT22;5080;48.528;8.078;2022-09-09T00:51:30;18.80;99.90
10083;DHT22;5080;48.528;8.078;2022-09-09T00:54:14;18.80;99.90
10083;DHT22;5080;48.528;8.078;2022-09-09T00:56:49;18.70;99.90
10083;DHT22;5080;48.528;8.078;2022-09-09T00:59:27;18.70;99.90
10083;DHT22;5080;48.528;8.078;2022-09-09T01:01:55;18.70;99.90
10083;DHT22;5080;48.528;8.078;2022-09-09T01:04:28;18.70;99.90
10083;DHT22;5080;48.528;8.078;2022-09-09T01:07:03;18.60;99.90
10083;DHT22;5080;48.528;8.078;2022-09-09T01:09:42;18.50;99.90
10083;DHT22;5080;48.528;8.078;2022-09-09T01:12:15;18.60;99.90
10083;DHT22;5080;48.528;8.078;2022-09-09T01:14:48;18.50;99.90
10083;DHT22;5080;48.528;8.078;2022-09-09T01:17:20;18.60;99.90
10083;DHT22;5080;48.528;8.078;2022-09-09T01:19:57;18.60;99.90
10083;DHT22;5080;48.528;8.078;2022-09-09T01:22:34;18.60;99.90
10083;DHT22;5080;48.528;8.078;2022-09-09T01:25:18;18.50;99.90
10083;DHT22;5080;48.528;8.078;2022-09-09T01:27:48;18.40;99.90
10083;DHT22;5080;48.528;8.078;2022-09-09T01:30:19;18.20;99.90
10083;DHT22;5080;48.528;8.078;2022-09-09T01:32:49;18.10;99.90
10083;DHT22;5080;48.528;8.078;2022-09-09T01:35:24;18.00;99.90
10083;DHT22;5080;48.528;8.078;2022-09-09T01:37:53;18.10;99.90
10083;DHT22;5080;48.528;8.078;2022-09-09T01:40:20;18.00;99.90
10083;DHT22;5080;48.528;8.078;2022-09-09T01:42:48;18.10;99.90
10083;DHT22;5080;48.528;8.078;2022-09-09T01:45:15;18.10;99.90
10083;DHT22;5080;48.528;8.078;2022-09-09T01:47:43;18.10;99.90
10083;DHT22;5080;48.528;8.078;2022-09-09T01:50:13;18.00;99.90
10083;DHT22;5080;48.528;8.078;2022-09-09T01:52:42;18.00;99.90
10083;DHT22;5080;48.528;8.078;2022-09-09T01:55:10;17.90;99.90
10083;DHT22;5080;48.528;8.078;2022-09-09T01:57:43;17.90;99.90
10083;DHT22;5080;48.528;8.078;2022-09-09T02:00:14;17.90;99.90
10083;DHT22;5080;48.528;8.078;2022-09-09T02:02:48;17.80;99.90
10083;DHT22;5080;48.528;8.078;2022-09-09T02:05:22;17.80;99.90
10083;DHT22;5080;48.528;8.078;2022-09-09T02:07:54;17.80;99.90
10083;DHT22;5080;48.528;8.078;2022-09-09T02:10:25;17.70;99.90
10083;DHT22;5080;48.528;8.078;2022-09-09T02:12:58;17.70;99.90
10083;DHT22;5080;48.528;8.078;2022-09-09T02:15:32;17.60;99.90
10083;DHT22;5080;48.528;8.078;2022-09-09T02:18:01;17.60;99.90
10083;DHT22;5080;48.528;8.078;2022-09-09T02:20:32;17.60;99.90
10083;DHT22;5080;48.528;8.078;2022-09-09T02:22:59;17.50;99.90
10083;DHT22;5080;48.528;8.078;2022-09-09T02:25:28;17.50;99.90
10083;DHT22;5080;48.528;8.078;2022-09-09T02:27:56;17.40;99.90
10083;DHT22;5080;48.528;8.078;2022-09-09T02:30:24;17.40;99.90
10083;DHT22;5080;48.528;8.078;2022-09-09T02:32:55;17.30;99.90
10083;DHT22;5080;48.528;8.078;2022-09-09T02:35:24;17.30;99.90
10083;DHT22;5080;48.528;8.078;2022-09-09T02:37:55;17.30;99.90
10083;DHT22;5080;48.528;8.078;2022-09-09T02:40:23;17.40;99.90
10083;DHT22;5080;48.528;8.078;2022-09-09T02:42:50;17.20;99.90
10083;DHT22;5080;48.528;8.078;2022-09-09T02:45:19;17.20;99.90
10083;DHT22;5080;48.528;8.078;2022-09-09T02:47:51;17.10;99.90
10083;DHT22;5080;48.528;8.078;2022-09-09T02:50:24;17.00;99.90
10083;DHT22;5080;48.528;8.078;2022-09-09T02:53:02;16.90;99.90
10083;DHT22;5080;48.528;8.078;2022-09-09T02:55:38;17.00;99.90
10083;DHT22;5080;48.528;8.078;2022-09-09T02:58:08;17.00;99.90
10083;DHT22;5080;48.528;8.078;2022-09-09T03:00:37;17.10;99.90
10083;DHT22;5080;48.528;8.078;2022-09-09T03:03:05;17.10;99.90
10083;DHT22;5080;48.528;8.078;2022-09-09T03:05:34;17.10;99.90
10083;DHT22;5080;48.528;8.078;2022-09-09T03:08:02;17.10;99.90
10083;DHT22;5080;48.528;8.078;2022-09-09T03:10:29;17.20;99.90
10083;DHT22;5080;48.528;8.078;2022-09-09T03:12:56;17.20;99.90
10083;DHT22;5080;48.528;8.078;2022-09-09T03:15:23;17.20;99.90
10083;DHT22;5080;48.528;8.078;2022-09-09T03:17:50;17.10;99.90
10083;DHT22;5080;48.528;8.078;2022-09-09T03:20:16;17.20;99.90
10083;DHT22;5080;48.528;8.078;2022-09-09T03:22:45;17.10;99.90
10083;DHT22;5080;48.528;8.078;2022-09-09T03:25:12;17.10;99.90
10083;DHT22;5080;48.528;8.078;2022-09-09T03:27:39;17.00;99.90
10083;DHT22;5080;48.528;8.078;2022-09-09T03:30:06;16.90;99.90
10083;DHT22;5080;48.528;8.078;2022-09-09T03:32:33;16.90;99.90
10083;DHT22;5080;48.528;8.078;2022-09-09T03:35:00;16.90;99.90
10083;DHT22;5080;48.528;8.078;2022-09-09T03:37:27;16.90;99.90
10083;DHT22;5080;48.528;8.078;2022-09-09T03:39:55;17.00;99.90
10083;DHT22;5080;48.528;8.078;2022-09-09T03:42:22;17.00;99.90
10083;DHT22;5080;48.528;8.078;2022-09-09T03:44:49;16.90;99.90
10083;DHT22;5080;48.528;8.078;2022-09-09T03:47:17;16.90;99.90
10083;DHT22;5080;48.528;8.078;2022-09-09T03:49:45;16.90;99.90
10083;DHT22;5080;48.528;8.078;2022-09-09T03:52:12;16.90;99.90
10083;DHT22;5080;48.528;8.078;2022-09-09T03:54:39;16.80;99.90
10083;DHT22;5080;48.528;8.078;2022-09-09T03:57:09;16.90;99.90
10083;DHT22;5080;48.528;8.078;2022-09-09T03:59:36;16.80;99.90
10083;DHT22;5080;48.528;8.078;2022-09-09T04:02:04;16.90;99.90
10083;DHT22;5080;48.528;8.078;2022-09-09T04:04:31;16.80;99.90
10083;DHT22;5080;48.528;8.078;2022-09-09T04:06:57;16.90;99.90
10083;DHT22;5080;48.528;8.078;2022-09-09T04:09:24;16.80;99.90
10083;DHT22;5080;48.528;8.078;2022-09-09T04:11:51;16.80;99.90
10083;DHT22;5080;48.528;8.078;2022-09-09T04:14:20;16.90;99.90
10083;DHT22;5080;48.528;8.078;2022-09-09T04:16:47;16.90;99.90
10083;DHT22;5080;48.528;8.078;2022-09-09T04:19:14;17.00;99.90
10083;DHT22;5080;48.528;8.078;2022-09-09T04:21:41;17.00;99.90
10083;DHT22;5080;48.528;8.078;2022-09-09T04:24:08;17.00;99.90
10083;DHT22;5080;48.528;8.078;2022-09-09T04:26:36;17.00;99.90
10083;DHT22;5080;48.528;8.078;2022-09-09T04:29:04;17.00;99.90
10083;DHT22;5080;48.528;8.078;2022-09-09T04:31:35;17.10;99.90
10083;DHT22;5080;48.528;8.078;2022-09-09T04:34:03;17.10;99.90
10083;DHT22;5080;48.528;8.078;2022-09-09T04:36:31;17.00;99.90
10083;DHT22;5080;48.528;8.078;2022-09-09T04:38:58;16.90;99.90
10083;DHT22;5080;48.528;8.078;2022-09-09T04:41:25;16.90;99.90
10083;DHT22;5080;48.528;8.078;2022-09-09T04:43:52;17.00;99.90
10083;DHT22;5080;48.528;8.078;2022-09-09T04:46:19;17.00;99.90
10083;DHT22;5080;48.528;8.078;2022-09-09T04:48:48;17.00;99.90
10083;DHT22;5080;48.528;8.078;2022-09-09T04:51:15;17.00;99.90
10083;DHT22;5080;48.528;8.078;2022-09-09T04:53:42;17.00;99.90
10083;DHT22;5080;48.528;8.078;2022-09-09T04:56:10;17.00;99.90
10083;DHT22;5080;48.528;8.078;2022-09-09T04:58:38;17.00;99.90
10083;DHT22;5080;48.528;8.078;2022-09-09T05:01:08;17.00;99.90
10083;DHT22;5080;48.528;8.078;2022-09-09T05:03:36;17.00;99.90
10083;DHT22;5080;48.528;8.078;2022-09-09T05:06:08;16.90;99.90
10083;DHT22;5080;48.528;8.078;2022-09-09T05:08:36;16.90;99.90
10083;DHT22;5080;48.528;8.078;2022-09-09T05:11:04;16.80;99.90
10083;DHT22;5080;48.528;8.078;2022-09-09T05:13:30;16.80;99.90
10083;DHT22;5080;48.528;8.078;2022-09-09T05:15:58;16.70;99.90
10083;DHT22;5080;48.528;8.078;2022-09-09T05:18:25;16.70;99.90
10083;DHT22;5080;48.528;8.078;2022-09-09T05:20:52;16.70;99.90
10083;DHT22;5080;48.528;8.078;2022-09-09T05:23:20;16.80;99.90
10083;DHT22;5080;48.528;8.078;2022-09-09T05:25:57;16.70;99.90
10083;DHT22;5080;48.528;8.078;2022-09-09T05:28:25;16.70;99.90
10083;DHT22;5080;48.528;8.078;2022-09-09T05:30:56;16.80;99.90
10083;DHT22;5080;48.528;8.078;2022-09-09T05:33:23;16.70;99.90
10083;DHT22;5080;48.528;8.078;2022-09-09T05:35:56;16.70;99.90
10083;DHT22;5080;48.528;8.078;2022-09-09T05:38:24;16.70;99.90
10083;DHT22;5080;48.528;8.078;2022-09-09T05:40:51;16.70;99.90
10083;DHT22;5080;48.528;8.078;2022-09-09T05:43:19;16.70;99.90
10083;DHT22;5080;48.528;8.078;2022-09-09T05:45:46;16.70;99.90
10083;DHT22;5080;48.528;8.078;2022-09-09T05:48:13;16.80;99.90
10083;DHT22;5080;48.528;8.078;2022-09-09T05:50:41;16.80;99.90
10083;DHT22;5080;48.528;8.078;2022-09-09T05:53:08;16.80;99.90
10083;DHT22;5080;48.528;8.078;2022-09-09T05:55:37;16.90;99.90
10083;DHT22;5080;48.528;8.078;2022-09-09T05:58:03;17.00;99.90
10083;DHT22;5080;48.528;8.078;2022-09-09T06:00:30;17.00;99.90
10083;DHT22;5080;48.528;8.078;2022-09-09T06:02:58;17.00;99.90
10083;DHT22;5080;48.528;8.078;2022-09-09T06:05:25;17.00;99.90
10083;DHT22;5080;48.528;8.078;2022-09-09T06:07:54;17.10;99.90
10083;DHT22;5080;48.528;8.078;2022-09-09T06:10:21;17.10;99.90
10083;DHT22;5080;48.528;8.078;2022-09-09T06:12:52;17.20;99.90
10083;DHT22;5080;48.528;8.078;2022-09-09T06:15:19;17.30;99.90
10083;DHT22;5080;48.528;8.078;2022-09-09T06:17:45;17.40;99.90
10083;DHT22;5080;48.528;8.078;2022-09-09T06:20:12;17.40;99.90
10083;DHT22;5080;48.528;8.078;2022-09-09T06:22:40;17.50;99.90
10083;DHT22;5080;48.528;8.078;2022-09-09T06:25:08;17.50;99.90
10083;DHT22;5080;48.528;8.078;2022-09-09T06:27:35;17.50;99.90
10083;DHT22;5080;48.528;8.078;2022-09-09T06:30:04;17.50;99.90
10083;DHT22;5080;48.528;8.078;2022-09-09T06:32:31;17.60;99.90
10083;DHT22;5080;48.528;8.078;2022-09-09T06:35:00;17.60;99.90
10083;DHT22;5080;48.528;8.078;2022-09-09T06:37:27;17.60;99.90
10083;DHT22;5080;48.528;8.078;2022-09-09T06:39:54;17.70;99.90
10083;DHT22;5080;48.528;8.078;2022-09-09T06:42:21;17.70;99.90
10083;DHT22;5080;48.528;8.078;2022-09-09T06:44:48;17.70;99.90
10083;DHT22;5080;48.528;8.078;2022-09-09T06:47:16;17.80;99.90
10083;DHT22;5080;48.528;8.078;2022-09-09T06:49:43;17.80;99.90
10083;DHT22;5080;48.528;8.078;2022-09-09T06:52:10;17.90;99.90
10083;DHT22;5080;48.528;8.078;2022-09-09T06:54:37;18.00;99.90
10083;DHT22;5080;48.528;8.078;2022-09-09T06:57:04;18.10;99.90
10083;DHT22;5080;48.528;8.078;2022-09-09T06:59:32;18.20;99.90
10083;DHT22;5080;48.528;8.078;2022-09-09T07:01:59;18.30;99.90
10083;DHT22;5080;48.528;8.078;2022-09-09T07:04:28;18.40;99.90
10083;DHT22;5080;48.528;8.078;2022-09-09T07:06:54;18.50;99.90
10083;DHT22;5080;48.528;8.078;2022-09-09T07:09:21;18.50;99.90
10083;DHT22;5080;48.528;8.078;2022-09-09T07:11:50;18.50;99.90
10083;DHT22;5080;48.528;8.078;2022-09-09T07:14:18;18.50;99.90
10083;DHT22;5080;48.528;8.078;2022-09-09T07:16:46;18.50;99.90
10083;DHT22;5080;48.528;8.078;2022-09-09T07:19:13;18.60;99.90
10083;DHT22;5080;48.528;8.078;2022-09-09T07:21:43;18.70;99.90
10083;DHT22;5080;48.528;8.078;2022-09-09T07:24:11;18.70;99.90
10083;DHT22;5080;48.528;8.078;2022-09-09T07:26:38;18.80;99.90
10083;DHT22;5080;48.528;8.078;2022-09-09T07:29:05;18.90;99.90
10083;DHT22;5080;48.528;8.078;2022-09-09T07:31:34;19.10;99.90
10083;DHT22;5080;48.528;8.078;2022-09-09T07:34:02;19.30;99.90
10083;DHT22;5080;48.528;8.078;2022-09-09T07:36:31;19.40;99.90
10083;DHT22;5080;48.528;8.078;2022-09-09T07:39:01;19.40;99.90
10083;DHT22;5080;48.528;8.078;2022-09-09T07:41:30;19.40;99.90
10083;DHT22;5080;48.528;8.078;2022-09-09T07:44:03;19.40;99.90
10083;DHT22;5080;48.528;8.078;2022-09-09T07:46:30;19.30;99.90
10083;DHT22;5080;48.528;8.078;2022-09-09T07:48:57;19.30;99.90
10083;DHT22;5080;48.528;8.078;2022-09-09T07:51:25;19.40;99.90
10083;DHT22;5080;48.528;8.078;2022-09-09T07:53:54;19.60;99.90
10083;DHT22;5080;48.528;8.078;2022-09-09T07:56:25;19.90;99.90
10083;DHT22;5080;48.528;8.078;2022-09-09T07:58:54;20.00;99.90
10083;DHT22;5080;48.528;8.078;2022-09-09T08:01:23;20.20;99.90
10083;DHT22;5080;48.528;8.078;2022-09-09T08:03:54;20.30;99.90
10083;DHT22;5080;48.528;8.078;2022-09-09T08:06:24;20.30;99.90
10083;DHT22;5080;48.528;8.078;2022-09-09T08:08:53;20.50;99.90
10083;DHT22;5080;48.528;8.078;2022-09-09T08:11:22;20.80;99.90
10083;DHT22;5080;48.528;8.078;2022-09-09T08:13:51;21.00;99.90
10083;DHT22;5080;48.528;8.078;2022-09-09T08:16:20;21.00;99.90
10083;DHT22;5080;48.528;8.078;2022-09-09T08:18:48;21.00;99.90
10083;DHT22;5080;48.528;8.078;2022-09-09T08:21:16;21.10;99.90
10083;DHT22;5080;48.528;8.078;2022-09-09T08:23:45;21.10;99.90
10083;DHT22;5080;48.528;8.078;2022-09-09T08:26:14;21.10;99.90
10083;DHT22;5080;48.528;8.078;2022-09-09T08:28:42;21.00;99.90
10083;DHT22;5080;48.528;8.078;2022-09-09T08:31:13;20.90;99.90
10083;DHT22;5080;48.528;8.078;2022-09-09T08:33:40;21.00;99.90
10083;DHT22;5080;48.528;8.078;2022-09-09T08:36:10;21.10;99.90
10083;DHT22;5080;48.528;8.078;2022-09-09T08:38:37;21.20;99.90
10083;DHT22;5080;48.528;8.078;2022-09-09T08:41:17;21.20;99.90
10083;DHT22;5080;48.528;8.078;2022-09-09T08:43:50;21.30;99.90
10083;DHT22;5080;48.528;8.078;2022-09-09T08:46:32;21.30;99.90
10083;DHT22;5080;48.528;8.078;2022-09-09T08:49:11;21.40;99.90
10083;DHT22;5080;48.528;8.078;2022-09-09T08:51:41;21.40;99.90
10083;DHT22;5080;48.528;8.078;2022-09-09T08:54:09;21.50;99.90
10083;DHT22;5080;48.528;8.078;2022-09-09T08:56:36;21.50;99.90
10083;DHT22;5080;48.528;8.078;2022-09-09T08:59:03;21.40;99.90
10083;DHT22;5080;48.528;8.078;2022-09-09T09:01:42;21.40;99.90
10083;DHT22;5080;48.528;8.078;2022-09-09T09:04:22;21.50;99.90
10083;DHT22;5080;48.528;8.078;2022-09-09T09:07:00;21.60;99.90
10083;DHT22;5080;48.528;8.078;2022-09-09T09:09:32;21.60;99.90
10083;DHT22;5080;48.528;8.078;2022-09-09T09:12:13;21.70;99.90
10083;DHT22;5080;48.528;8.078;2022-09-09T09:14:43;21.70;99.90
10083;DHT22;5080;48.528;8.078;2022-09-09T09:17:14;21.50;99.90
10083;DHT22;5080;48.528;8.078;2022-09-09T09:19:42;21.50;99.90
10083;DHT22;5080;48.528;8.078;2022-09-09T09:22:16;21.50;99.90
10083;DHT22;5080;48.528;8.078;2022-09-09T09:24:51;21.50;99.90
10083;DHT22;5080;48.528;8.078;2022-09-09T09:27:25;21.50;99.90
10083;DHT22;5080;48.528;8.078;2022-09-09T09:29:55;21.40;99.90
10083;DHT22;5080;48.528;8.078;2022-09-09T09:32:27;21.50;99.90
10083;DHT22;5080;48.528;8.078;2022-09-09T09:34:56;21.40;99.90
10083;DHT22;5080;48.528;8.078;2022-09-09T09:37:27;21.50;99.90
10083;DHT22;5080;48.528;8.078;2022-09-09T09:39:55;21.40;99.90
10083;DHT22;5080;48.528;8.078;2022-09-09T09:42:22;21.50;99.90
10083;DHT22;5080;48.528;8.078;2022-09-09T09:44:49;21.50;99.90
10083;DHT22;5080;48.528;8.078;2022-09-09T09:47:18;21.50;99.90
10083;DHT22;5080;48.528;8.078;2022-09-09T09:49:54;21.40;99.90
10083;DHT22;5080;48.528;8.078;2022-09-09T09:52:23;21.30;99.90
10083;DHT22;5080;48.528;8.078;2022-09-09T09:54:51;21.10;99.90
10083;DHT22;5080;48.528;8.078;2022-09-09T09:57:23;20.90;99.90
10083;DHT22;5080;48.528;8.078;2022-09-09T10:00:01;20.70;99.90
10083;DHT22;5080;48.528;8.078;2022-09-09T10:02:37;20.40;99.90
10083;DHT22;5080;48.528;8.078;2022-09-09T10:05:14;20.10;99.90
10083;DHT22;5080;48.528;8.078;2022-09-09T10:07:42;19.90;99.90
10083;DHT22;5080;48.528;8.078;2022-09-09T10:10:15;19.80;99.90
10083;DHT22;5080;48.528;8.078;2022-09-09T10:12:55;19.70;99.90
10083;DHT22;5080;48.528;8.078;2022-09-09T10:15:41;19.60;99.90
10083;DHT22;5080;48.528;8.078;2022-09-09T10:21:09;19.50;99.90
10083;DHT22;5080;48.528;8.078;2022-09-09T10:23:52;19.40;99.90
10083;DHT22;5080;48.528;8.078;2022-09-09T10:26:32;19.40;99.90
10083;DHT22;5080;48.528;8.078;2022-09-09T10:29:21;19.30;99.90
10083;DHT22;5080;48.528;8.078;2022-09-09T10:31:59;19.40;99.90
10083;DHT22;5080;48.528;8.078;2022-09-09T10:34:50;19.50;99.90
10083;DHT22;5080;48.528;8.078;2022-09-09T10:37:37;20.00;99.90
10083;DHT22;5080;48.528;8.078;2022-09-09T10:40:20;20.10;99.90
10083;DHT22;5080;48.528;8.078;2022-09-09T10:42:53;20.20;99.90
10083;DHT22;5080;48.528;8.078;2022-09-09T10:45:28;20.60;99.90
10083;DHT22;5080;48.528;8.078;2022-09-09T10:48:12;20.90;99.90
10083;DHT22;5080;48.528;8.078;2022-09-09T10:50:50;20.90;99.90
10083;DHT22;5080;48.528;8.078;2022-09-09T10:53:28;21.00;99.90
10083;DHT22;5080;48.528;8.078;2022-09-09T10:56:04;21.10;99.90
10083;DHT22;5080;48.528;8.078;2022-09-09T10:58:39;21.30;99.90
10083;DHT22;5080;48.528;8.078;2022-09-09T11:01:13;21.50;99.90
10083;DHT22;5080;48.528;8.078;2022-09-09T11:03:43;21.30;99.90
10083;DHT22;5080;48.528;8.078;2022-09-09T11:06:14;21.30;99.90
10083;DHT22;5080;48.528;8.078;2022-09-09T11:08:45;21.40;99.90
10083;DHT22;5080;48.528;8.078;2022-09-09T11:11:16;21.60;99.90
10083;DHT22;5080;48.528;8.078;2022-09-09T11:13:47;21.70;99.90
10083;DHT22;5080;48.528;8.078;2022-09-09T11:16:24;21.80;99.90
10083;DHT22;5080;48.528;8.078;2022-09-09T11:18:57;21.80;99.90
10083;DHT22;5080;48.528;8.078;2022-09-09T11:21:28;21.90;99.90
10083;DHT22;5080;48.528;8.078;2022-09-09T11:24:00;21.90;99.90
10083;DHT22;5080;48.528;8.078;2022-09-09T11:26:32;22.00;99.90
10083;DHT22;5080;48.528;8.078;2022-09-09T11:32:01;22.30;99.90
10083;DHT22;5080;48.528;8.078;2022-09-09T11:34:38;22.60;99.90
10083;DHT22;5080;48.528;8.078;2022-09-09T11:37:34;22.90;99.90
10083;DHT22;5080;48.528;8.078;2022-09-09T11:40:18;23.20;99.90
10083;DHT22;5080;48.528;8.078;2022-09-09T11:42:46;23.50;99.90
10083;DHT22;5080;48.528;8.078;2022-09-09T11:45:23;23.70;99.90
10083;DHT22;5080;48.528;8.078;2022-09-09T11:47:54;23.70;99.90
10083;DHT22;5080;48.528;8.078;2022-09-09T11:50:29;23.70;99.90
10083;DHT22;5080;48.528;8.078;2022-09-09T11:53:15;23.70;99.90
10083;DHT22;5080;48.528;8.078;2022-09-09T11:55:47;23.80;99.90
10083;DHT22;5080;48.528;8.078;2022-09-09T11:58:17;23.60;99.90
10083;DHT22;5080;48.528;8.078;2022-09-09T12:00:46;23.50;99.90
10083;DHT22;5080;48.528;8.078;2022-09-09T12:03:32;23.50;99.90
10083;DHT22;5080;48.528;8.078;2022-09-09T12:06:11;23.90;99.90
10083;DHT22;5080;48.528;8.078;2022-09-09T12:08:42;24.20;99.90
10083;DHT22;5080;48.528;8.078;2022-09-09T12:11:11;24.30;99.90
10083;DHT22;5080;48.528;8.078;2022-09-09T12:13:38;24.00;99.90
10083;DHT22;5080;48.528;8.078;2022-09-09T12:16:28;23.70;99.90
10083;DHT22;5080;48.528;8.078;2022-09-09T12:19:04;23.80;99.90
10083;DHT22;5080;48.528;8.078;2022-09-09T12:21:36;23.90;99.90
10083;DHT22;5080;48.528;8.078;2022-09-09T12:24:09;23.90;99.90
10083;DHT22;5080;48.528;8.078;2022-09-09T12:26:42;24.00;99.90
10083;DHT22;5080;48.528;8.078;2022-09-09T12:29:19;23.90;99.90
10083;DHT22;5080;48.528;8.078;2022-09-09T12:31:55;23.90;99.90
10083;DHT22;5080;48.528;8.078;2022-09-09T12:34:32;24.00;99.90
10083;DHT22;5080;48.528;8.078;2022-09-09T12:37:05;23.90;99.90
10083;DHT22;5080;48.528;8.078;2022-09-09T12:39:35;23.80;99.90
10083;DHT22;5080;48.528;8.078;2022-09-09T12:42:14;23.90;99.90
10083;DHT22;5080;48.528;8.078;2022-09-09T12:44:51;24.10;99.90
10083;DHT22;5080;48.528;8.078;2022-09-09T12:47:19;24.30;99.90
10083;DHT22;5080;48.528;8.078;2022-09-09T12:49:48;24.30;99.90
10083;DHT22;5080;48.528;8.078;2022-09-09T12:52:30;24.30;99.90
10083;DHT22;5080;48.528;8.078;2022-09-09T12:55:00;24.40;99.90
10083;DHT22;5080;48.528;8.078;2022-09-09T12:57:34;24.60;99.90
10083;DHT22;5080;48.528;8.078;2022-09-09T13:00:08;24.60;99.90
10083;DHT22;5080;48.528;8.078;2022-09-09T13:02:46;24.50;99.90
10083;DHT22;5080;48.528;8.078;2022-09-09T13:05:16;24.40;99.90
10083;DHT22;5080;48.528;8.078;2022-09-09T13:07:44;24.30;99.90
10083;DHT22;5080;48.528;8.078;2022-09-09T13:10:12;24.10;99.90
10083;DHT22;5080;48.528;8.078;2022-09-09T13:12:41;24.10;99.90
10083;DHT22;5080;48.528;8.078;2022-09-09T13:15:18;24.00;99.90
10083;DHT22;5080;48.528;8.078;2022-09-09T13:17:54;23.90;99.90
10083;DHT22;5080;48.528;8.078;2022-09-09T13:20:22;24.00;99.90
10083;DHT22;5080;48.528;8.078;2022-09-09T13:22:51;23.90;99.90
10083;DHT22;5080;48.528;8.078;2022-09-09T13:25:22;23.90;99.90
10083;DHT22;5080;48.528;8.078;2022-09-09T13:27:58;23.90;99.90
10083;DHT22;5080;48.528;8.078;2022-09-09T13:30:28;23.90;99.90
10083;DHT22;5080;48.528;8.078;2022-09-09T13:33:20;23.80;99.90
10083;DHT22;5080;48.528;8.078;2022-09-09T13:35:51;23.80;99.90
10083;DHT22;5080;48.528;8.078;2022-09-09T13:38:19;23.80;99.90
10083;DHT22;5080;48.528;8.078;2022-09-09T13:40:55;23.70;99.90
10083;DHT22;5080;48.528;8.078;2022-09-09T13:43:25;23.80;99.90
10083;DHT22;5080;48.528;8.078;2022-09-09T13:45:56;23.70;99.90
10083;DHT22;5080;48.528;8.078;2022-09-09T13:48:24;23.40;99.90
10083;DHT22;5080;48.528;8.078;2022-09-09T13:50:59;23.40;99.90
10083;DHT22;5080;48.528;8.078;2022-09-09T13:53:27;23.60;99.90
10083;DHT22;5080;48.528;8.078;2022-09-09T13:55:54;23.60;99.90
10083;DHT22;5080;48.528;8.078;2022-09-09T13:58:24;23.60;99.90
10083;DHT22;5080;48.528;8.078;2022-09-09T14:00:51;23.50;99.90
10083;DHT22;5080;48.528;8.078;2022-09-09T14:03:19;23.30;99.90
10083;DHT22;5080;48.528;8.078;2022-09-09T14:05:46;23.20;99.90
10083;DHT22;5080;48.528;8.078;2022-09-09T14:08:20;23.20;99.90
10083;DHT22;5080;48.528;8.078;2022-09-09T14:10:47;23.20;99.90
10083;DHT22;5080;48.528;8.078;2022-09-09T14:13:14;23.20;99.90
10083;DHT22;5080;48.528;8.078;2022-09-09T14:15:42;23.20;99.90
10083;DHT22;5080;48.528;8.078;2022-09-09T14:18:11;23.20;99.90
10083;DHT22;5080;48.528;8.078;2022-09-09T14:20:39;23.10;99.90
10083;DHT22;5080;48.528;8.078;2022-09-09T14:23:10;23.20;99.90
10083;DHT22;5080;48.528;8.078;2022-09-09T14:25:40;23.20;99.90
10083;DHT22;5080;48.528;8.078;2022-09-09T14:28:09;23.20;99.90
10083;DHT22;5080;48.528;8.078;2022-09-09T14:30:37;23.10;99.90
10083;DHT22;5080;48.528;8.078;2022-09-09T14:33:06;23.10;99.90
10083;DHT22;5080;48.528;8.078;2022-09-09T14:35:33;23.00;99.90
10083;DHT22;5080;48.528;8.078;2022-09-09T14:38:02;22.80;99.90
10083;DHT22;5080;48.528;8.078;2022-09-09T14:40:29;22.70;99.90
10083;DHT22;5080;48.528;8.078;2022-09-09T14:42:56;22.50;99.90
10083;DHT22;5080;48.528;8.078;2022-09-09T14:45:24;22.30;99.90
10083;DHT22;5080;48.528;8.078;2022-09-09T14:47:52;22.10;99.90
10083;DHT22;5080;48.528;8.078;2022-09-09T14:50:21;22.10;99.90
10083;DHT22;5080;48.528;8.078;2022-09-09T14:52:48;22.10;99.90
10083;DHT22;5080;48.528;8.078;2022-09-09T14:55:16;22.00;99.90
10083;DHT22;5080;48.528;8.078;2022-09-09T14:57:42;22.00;99.90
10083;DHT22;5080;48.528;8.078;2022-09-09T15:00:10;21.80;99.90
10083;DHT22;5080;48.528;8.078;2022-09-09T15:02:37;21.50;99.90
10083;DHT22;5080;48.528;8.078;2022-09-09T15:05:05;20.90;99.90
10083;DHT22;5080;48.528;8.078;2022-09-09T15:07:33;20.40;99.90
10083;DHT22;5080;48.528;8.078;2022-09-09T15:10:02;20.30;99.90
10083;DHT22;5080;48.528;8.078;2022-09-09T15:12:29;20.30;99.90
10083;DHT22;5080;48.528;8.078;2022-09-09T15:14:56;20.40;99.90
10083;DHT22;5080;48.528;8.078;2022-09-09T15:17:23;20.50;99.90
10083;DHT22;5080;48.528;8.078;2022-09-09T15:19:53;20.70;99.90
10083;DHT22;5080;48.528;8.078;2022-09-09T15:22:20;20.70;99.90
10083;DHT22;5080;48.528;8.078;2022-09-09T15:24:48;20.80;99.90
10083;DHT22;5080;48.528;8.078;2022-09-09T15:27:15;20.70;99.90
10083;DHT22;5080;48.528;8.078;2022-09-09T15:29:43;20.80;99.90
10083;DHT22;5080;48.528;8.078;2022-09-09T15:32:10;21.00;99.90
10083;DHT22;5080;48.528;8.078;2022-09-09T15:34:37;21.00;99.90
10083;DHT22;5080;48.528;8.078;2022-09-09T15:37:04;21.00;99.90
10083;DHT22;5080;48.528;8.078;2022-09-09T15:39:31;21.00;99.90
10083;DHT22;5080;48.528;8.078;2022-09-09T15:42:00;20.90;99.90
10083;DHT22;5080;48.528;8.078;2022-09-09T15:44:27;20.90;99.90
10083;DHT22;5080;48.528;8.078;2022-09-09T15:46:54;20.90;99.90
10083;DHT22;5080;48.528;8.078;2022-09-09T15:49:22;20.80;99.90
10083;DHT22;5080;48.528;8.078;2022-09-09T15:51:51;20.80;99.90
10083;DHT22;5080;48.528;8.078;2022-09-09T15:54:20;20.80;99.90
10083;DHT22;5080;48.528;8.078;2022-09-09T15:56:51;20.70;99.90
10083;DHT22;5080;48.528;8.078;2022-09-09T15:59:20;20.60;99.90
10083;DHT22;5080;48.528;8.078;2022-09-09T16:01:47;20.60;99.90
10083;DHT22;5080;48.528;8.078;2022-09-09T16:04:17;20.50;99.90
10083;DHT22;5080;48.528;8.078;2022-09-09T16:06:50;20.60;99.90
10083;DHT22;5080;48.528;8.078;2022-09-09T16:09:17;20.50;99.90
10083;DHT22;5080;48.528;8.078;2022-09-09T16:11:45;20.50;99.90